sensor_id;sensor_type;location;lat;lon;timestamp;P1;durP1;ratioP1;P2;durP2;ratioP2
5898;SDS011;2975;50.956;6.962;2022-10-17T00:01:01;4.53;;;4.17;;
5898;SDS011;2975;50.956;6.962;2022-10-17T00:03:27;8.87;;;4.57;;
5898;SDS011;2975;50.956;6.962;2022-10-17T00:05:53;10.03;;;4.73;;
5898;SDS011;2975;50.956;6.962;2022-10-17T00:08:19;7.70;;;4.63;;
5898;SDS011;2975;50.956;6.962;2022-10-17T00:10:45;5.50;;;4.60;;
5898;SDS011;2975;50.956;6.962;2022-10-17T00:13:20;7.33;;;4.60;;
5898;SDS011;2975;50.956;6.962;2022-10-17T00:15:46;6.60;;;4.20;;
5898;SDS011;2975;50.956;6.962;2022-10-17T00:18:11;5.50;;;4.47;;
5898;SDS011;2975;50.956;6.962;2022-10-17T00:20:37;4.20;;;3.73;;
5898;SDS011;2975;50.956;6.962;2022-10-17T00:23:03;6.70;;;4.50;;
5898;SDS011;2975;50.956;6.962;2022-10-17T00:25:28;5.50;;;4.77;;
5898;SDS011;2975;50.956;6.962;2022-10-17T00:27:54;6.13;;;4.20;;
5898;SDS011;2975;50.956;6.962;2022-10-17T00:30:19;5.40;;;3.90;;
5898;SDS011;2975;50.956;6.962;2022-10-17T00:32:45;5.57;;;4.47;;
5898;SDS011;2975;50.956;6.962;2022-10-17T00:35:11;5.63;;;4.00;;
5898;SDS011;2975;50.956;6.962;2022-10-17T00:37:36;4.93;;;4.00;;
5898;SDS011;2975;50.956;6.962;2022-10-17T00:40:02;6.87;;;4.50;;
5898;SDS011;2975;50.956;6.962;2022-10-17T00:42:29;6.20;;;4.70;;
5898;SDS011;2975;50.956;6.962;2022-10-17T00:47:39;5.07;;;4.10;;
5898;SDS011;2975;50.956;6.962;2022-10-17T00:50:06;5.67;;;4.87;;
5898;SDS011;2975;50.956;6.962;2022-10-17T00:52:33;9.43;;;4.40;;
5898;SDS011;2975;50.956;6.962;2022-10-17T00:55:33;5.20;;;4.60;;
5898;SDS011;2975;50.956;6.962;2022-10-17T00:57:55;5.07;;;4.23;;
5898;SDS011;2975;50.956;6.962;2022-10-17T01:00:22;9.00;;;4.60;;
5898;SDS011;2975;50.956;6.962;2022-10-17T01:02:48;5.83;;;4.13;;
5898;SDS011;2975;50.956;6.962;2022-10-17T01:05:14;11.23;;;4.17;;
5898;SDS011;2975;50.956;6.962;2022-10-17T01:07:40;5.23;;;4.37;;
5898;SDS011;2975;50.956;6.962;2022-10-17T01:10:08;4.50;;;4.10;;
5898;SDS011;2975;50.956;6.962;2022-10-17T01:12:47;6.90;;;3.87;;
5898;SDS011;2975;50.956;6.962;2022-10-17T01:15:32;4.33;;;3.90;;
5898;SDS011;2975;50.956;6.962;2022-10-17T01:25:55;4.37;;;3.97;;
5898;SDS011;2975;50.956;6.962;2022-10-17T01:29:00;4.70;;;4.17;;
5898;SDS011;2975;50.956;6.962;2022-10-17T01:34:20;5.07;;;4.57;;
5898;SDS011;2975;50.956;6.962;2022-10-17T01:39:43;5.60;;;4.03;;
5898;SDS011;2975;50.956;6.962;2022-10-17T01:45:28;6.47;;;4.23;;
5898;SDS011;2975;50.956;6.962;2022-10-17T01:48:02;7.13;;;4.20;;
5898;SDS011;2975;50.956;6.962;2022-10-17T01:50:33;4.27;;;3.87;;
5898;SDS011;2975;50.956;6.962;2022-10-17T01:53:13;6.43;;;3.40;;
5898;SDS011;2975;50.956;6.962;2022-10-17T01:55:43;7.27;;;3.97;;
5898;SDS011;2975;50.956;6.962;2022-10-17T01:58:12;5.07;;;4.13;;
5898;SDS011;2975;50.956;6.962;2022-10-17T02:00:40;5.20;;;4.20;;
5898;SDS011;2975;50.956;6.962;2022-10-17T02:03:08;6.83;;;4.00;;
5898;SDS011;2975;50.956;6.962;2022-10-17T02:05:40;6.70;;;3.87;;
5898;SDS011;2975;50.956;6.962;2022-10-17T02:08:07;5.40;;;4.13;;
5898;SDS011;2975;50.956;6.962;2022-10-17T02:10:43;4.57;;;4.03;;
5898;SDS011;2975;50.956;6.962;2022-10-17T02:13:18;6.53;;;4.23;;
5898;SDS011;2975;50.956;6.962;2022-10-17T02:26:18;6.50;;;3.93;;
5898;SDS011;2975;50.956;6.962;2022-10-17T02:31:34;4.47;;;3.73;;
5898;SDS011;2975;50.956;6.962;2022-10-17T02:34:01;5.10;;;3.83;;
5898;SDS011;2975;50.956;6.962;2022-10-17T02:36:34;5.60;;;3.53;;
5898;SDS011;2975;50.956;6.962;2022-10-17T02:39:05;4.73;;;3.63;;
5898;SDS011;2975;50.956;6.962;2022-10-17T02:41:33;6.47;;;3.90;;
5898;SDS011;2975;50.956;6.962;2022-10-17T02:44:01;3.70;;;3.40;;
5898;SDS011;2975;50.956;6.962;2022-10-17T02:46:29;8.43;;;4.27;;
5898;SDS011;2975;50.956;6.962;2022-10-17T02:51:28;5.77;;;4.00;;
5898;SDS011;2975;50.956;6.962;2022-10-17T02:56:26;4.63;;;3.60;;
5898;SDS011;2975;50.956;6.962;2022-10-17T02:58:56;5.83;;;4.37;;
5898;SDS011;2975;50.956;6.962;2022-10-17T03:01:24;7.33;;;3.87;;
5898;SDS011;2975;50.956;6.962;2022-10-17T03:03:50;10.97;;;5.20;;
5898;SDS011;2975;50.956;6.962;2022-10-17T03:06:16;6.80;;;3.93;;
5898;SDS011;2975;50.956;6.962;2022-10-17T03:08:42;9.03;;;4.17;;
5898;SDS011;2975;50.956;6.962;2022-10-17T03:11:07;6.47;;;4.07;;
5898;SDS011;2975;50.956;6.962;2022-10-17T03:13:33;6.43;;;3.97;;
5898;SDS011;2975;50.956;6.962;2022-10-17T03:15:59;11.63;;;4.00;;
5898;SDS011;2975;50.956;6.962;2022-10-17T03:18:24;4.63;;;4.07;;
5898;SDS011;2975;50.956;6.962;2022-10-17T03:20:50;4.90;;;3.50;;
5898;SDS011;2975;50.956;6.962;2022-10-17T03:23:16;3.80;;;3.50;;
5898;SDS011;2975;50.956;6.962;2022-10-17T03:25:41;7.23;;;3.80;;
5898;SDS011;2975;50.956;6.962;2022-10-17T03:28:07;5.80;;;3.83;;
5898;SDS011;2975;50.956;6.962;2022-10-17T03:30:36;5.27;;;3.67;;
5898;SDS011;2975;50.956;6.962;2022-10-17T03:33:02;7.10;;;4.10;;
5898;SDS011;2975;50.956;6.962;2022-10-17T03:35:28;4.67;;;3.77;;
5898;SDS011;2975;50.956;6.962;2022-10-17T03:37:56;7.83;;;3.93;;
5898;SDS011;2975;50.956;6.962;2022-10-17T03:40:22;7.50;;;3.53;;
5898;SDS011;2975;50.956;6.962;2022-10-17T03:42:47;5.00;;;2.93;;
5898;SDS011;2975;50.956;6.962;2022-10-17T03:45:13;4.37;;;3.90;;
5898;SDS011;2975;50.956;6.962;2022-10-17T03:47:39;5.10;;;4.33;;
5898;SDS011;2975;50.956;6.962;2022-10-17T03:50:04;4.73;;;3.97;;
5898;SDS011;2975;50.956;6.962;2022-10-17T03:52:31;5.43;;;4.03;;
5898;SDS011;2975;50.956;6.962;2022-10-17T03:54:57;7.47;;;3.63;;
5898;SDS011;2975;50.956;6.962;2022-10-17T03:57:22;8.33;;;3.83;;
5898;SDS011;2975;50.956;6.962;2022-10-17T03:59:48;6.20;;;3.90;;
5898;SDS011;2975;50.956;6.962;2022-10-17T04:02:15;6.43;;;3.40;;
5898;SDS011;2975;50.956;6.962;2022-10-17T04:04:40;6.10;;;3.53;;
5898;SDS011;2975;50.956;6.962;2022-10-17T04:07:06;6.60;;;3.73;;
5898;SDS011;2975;50.956;6.962;2022-10-17T04:09:32;5.97;;;3.90;;
5898;SDS011;2975;50.956;6.962;2022-10-17T04:11:57;5.20;;;3.83;;
5898;SDS011;2975;50.956;6.962;2022-10-17T04:14:23;4.47;;;3.30;;
5898;SDS011;2975;50.956;6.962;2022-10-17T04:16:48;7.40;;;3.87;;
5898;SDS011;2975;50.956;6.962;2022-10-17T04:19:14;5.10;;;3.87;;
5898;SDS011;2975;50.956;6.962;2022-10-17T04:21:40;4.70;;;3.90;;
5898;SDS011;2975;50.956;6.962;2022-10-17T04:24:05;3.93;;;3.53;;
5898;SDS011;2975;50.956;6.962;2022-10-17T04:26:34;5.63;;;3.83;;
5898;SDS011;2975;50.956;6.962;2022-10-17T04:28:59;5.03;;;4.07;;
5898;SDS011;2975;50.956;6.962;2022-10-17T04:31:25;5.43;;;4.23;;
5898;SDS011;2975;50.956;6.962;2022-10-17T04:33:50;8.33;;;3.93;;
5898;SDS011;2975;50.956;6.962;2022-10-17T04:36:17;3.80;;;3.40;;
5898;SDS011;2975;50.956;6.962;2022-10-17T04:38:44;9.10;;;4.00;;
5898;SDS011;2975;50.956;6.962;2022-10-17T04:41:10;5.97;;;4.17;;
5898;SDS011;2975;50.956;6.962;2022-10-17T04:43:38;5.60;;;3.63;;
5898;SDS011;2975;50.956;6.962;2022-10-17T04:46:05;5.97;;;4.23;;
5898;SDS011;2975;50.956;6.962;2022-10-17T04:48:33;4.20;;;3.50;;
5898;SDS011;2975;50.956;6.962;2022-10-17T04:51:03;7.43;;;4.10;;
5898;SDS011;2975;50.956;6.962;2022-10-17T04:53:31;5.57;;;4.07;;
5898;SDS011;2975;50.956;6.962;2022-10-17T04:55:59;7.20;;;3.93;;
5898;SDS011;2975;50.956;6.962;2022-10-17T04:58:27;7.37;;;4.27;;
5898;SDS011;2975;50.956;6.962;2022-10-17T05:00:53;8.07;;;3.87;;
5898;SDS011;2975;50.956;6.962;2022-10-17T05:03:18;5.77;;;4.00;;
5898;SDS011;2975;50.956;6.962;2022-10-17T05:05:44;5.77;;;3.50;;
5898;SDS011;2975;50.956;6.962;2022-10-17T05:08:09;4.30;;;3.53;;
5898;SDS011;2975;50.956;6.962;2022-10-17T05:10:40;5.77;;;3.50;;
5898;SDS011;2975;50.956;6.962;2022-10-17T05:13:07;6.57;;;4.03;;
5898;SDS011;2975;50.956;6.962;2022-10-17T05:15:34;4.23;;;3.30;;
5898;SDS011;2975;50.956;6.962;2022-10-17T05:18:00;4.87;;;3.60;;
5898;SDS011;2975;50.956;6.962;2022-10-17T05:20:26;5.00;;;3.83;;
5898;SDS011;2975;50.956;6.962;2022-10-17T05:22:52;8.10;;;3.93;;
5898;SDS011;2975;50.956;6.962;2022-10-17T05:25:17;6.07;;;3.43;;
5898;SDS011;2975;50.956;6.962;2022-10-17T05:27:43;8.03;;;4.23;;
5898;SDS011;2975;50.956;6.962;2022-10-17T05:30:09;6.00;;;3.87;;
5898;SDS011;2975;50.956;6.962;2022-10-17T05:32:35;5.03;;;4.07;;
5898;SDS011;2975;50.956;6.962;2022-10-17T05:35:01;9.87;;;4.53;;
5898;SDS011;2975;50.956;6.962;2022-10-17T05:37:28;8.10;;;3.90;;
5898;SDS011;2975;50.956;6.962;2022-10-17T05:39:55;5.67;;;3.93;;
5898;SDS011;2975;50.956;6.962;2022-10-17T05:42:21;6.03;;;3.63;;
5898;SDS011;2975;50.956;6.962;2022-10-17T05:44:46;6.37;;;3.53;;
5898;SDS011;2975;50.956;6.962;2022-10-17T05:47:12;6.33;;;4.20;;
5898;SDS011;2975;50.956;6.962;2022-10-17T05:49:38;11.77;;;4.40;;
5898;SDS011;2975;50.956;6.962;2022-10-17T05:52:03;9.53;;;4.23;;
5898;SDS011;2975;50.956;6.962;2022-10-17T05:54:29;6.47;;;4.00;;
5898;SDS011;2975;50.956;6.962;2022-10-17T05:56:55;5.00;;;3.93;;
5898;SDS011;2975;50.956;6.962;2022-10-17T05:59:22;6.97;;;3.80;;
5898;SDS011;2975;50.956;6.962;2022-10-17T06:01:49;4.70;;;4.10;;
5898;SDS011;2975;50.956;6.962;2022-10-17T06:04:14;6.77;;;4.10;;
5898;SDS011;2975;50.956;6.962;2022-10-17T06:06:40;8.00;;;4.03;;
5898;SDS011;2975;50.956;6.962;2022-10-17T06:09:06;9.20;;;4.30;;
5898;SDS011;2975;50.956;6.962;2022-10-17T06:11:33;10.87;;;4.10;;
5898;SDS011;2975;50.956;6.962;2022-10-17T06:13:59;7.20;;;3.83;;
5898;SDS011;2975;50.956;6.962;2022-10-17T06:16:25;6.40;;;4.13;;
5898;SDS011;2975;50.956;6.962;2022-10-17T06:18:51;11.90;;;4.40;;
5898;SDS011;2975;50.956;6.962;2022-10-17T06:21:18;10.33;;;4.53;;
5898;SDS011;2975;50.956;6.962;2022-10-17T06:23:46;6.07;;;3.67;;
5898;SDS011;2975;50.956;6.962;2022-10-17T06:26:11;6.87;;;3.40;;
5898;SDS011;2975;50.956;6.962;2022-10-17T06:28:37;7.07;;;3.97;;
5898;SDS011;2975;50.956;6.962;2022-10-17T06:31:06;5.93;;;4.30;;
5898;SDS011;2975;50.956;6.962;2022-10-17T06:33:35;10.63;;;3.80;;
5898;SDS011;2975;50.956;6.962;2022-10-17T06:36:02;9.83;;;4.03;;
5898;SDS011;2975;50.956;6.962;2022-10-17T06:38:28;6.43;;;3.83;;
5898;SDS011;2975;50.956;6.962;2022-10-17T06:41:00;9.13;;;3.53;;
5898;SDS011;2975;50.956;6.962;2022-10-17T06:43:27;5.70;;;3.70;;
5898;SDS011;2975;50.956;6.962;2022-10-17T06:45:53;6.33;;;3.83;;
5898;SDS011;2975;50.956;6.962;2022-10-17T06:48:18;5.00;;;3.33;;
5898;SDS011;2975;50.956;6.962;2022-10-17T06:50:44;5.67;;;3.83;;
5898;SDS011;2975;50.956;6.962;2022-10-17T06:53:09;7.67;;;3.70;;
5898;SDS011;2975;50.956;6.962;2022-10-17T06:55:35;5.53;;;3.30;;
5898;SDS011;2975;50.956;6.962;2022-10-17T06:58:00;4.70;;;2.90;;
5898;SDS011;2975;50.956;6.962;2022-10-17T07:00:26;4.40;;;3.17;;
5898;SDS011;2975;50.956;6.962;2022-10-17T07:02:52;7.80;;;3.20;;
5898;SDS011;2975;50.956;6.962;2022-10-17T07:05:17;10.13;;;3.23;;
5898;SDS011;2975;50.956;6.962;2022-10-17T07:07:44;5.83;;;3.23;;
5898;SDS011;2975;50.956;6.962;2022-10-17T07:10:09;4.17;;;2.80;;
5898;SDS011;2975;50.956;6.962;2022-10-17T07:12:35;5.03;;;3.27;;
5898;SDS011;2975;50.956;6.962;2022-10-17T07:15:02;5.00;;;3.27;;
5898;SDS011;2975;50.956;6.962;2022-10-17T07:17:29;12.13;;;3.73;;
5898;SDS011;2975;50.956;6.962;2022-10-17T07:19:54;6.37;;;3.20;;
5898;SDS011;2975;50.956;6.962;2022-10-17T07:22:20;4.70;;;3.20;;
5898;SDS011;2975;50.956;6.962;2022-10-17T07:24:46;7.30;;;3.37;;
5898;SDS011;2975;50.956;6.962;2022-10-17T07:27:11;8.10;;;3.23;;
5898;SDS011;2975;50.956;6.962;2022-10-17T07:29:37;4.97;;;2.70;;
5898;SDS011;2975;50.956;6.962;2022-10-17T07:32:03;4.20;;;2.77;;
5898;SDS011;2975;50.956;6.962;2022-10-17T07:34:32;7.47;;;3.40;;
5898;SDS011;2975;50.956;6.962;2022-10-17T07:36:58;7.33;;;2.83;;
5898;SDS011;2975;50.956;6.962;2022-10-17T07:39:24;6.43;;;3.20;;
5898;SDS011;2975;50.956;6.962;2022-10-17T07:41:49;7.60;;;3.13;;
5898;SDS011;2975;50.956;6.962;2022-10-17T07:44:15;6.60;;;3.33;;
5898;SDS011;2975;50.956;6.962;2022-10-17T07:46:41;6.00;;;3.10;;
5898;SDS011;2975;50.956;6.962;2022-10-17T07:49:06;8.90;;;3.13;;
5898;SDS011;2975;50.956;6.962;2022-10-17T07:51:32;5.40;;;2.93;;
5898;SDS011;2975;50.956;6.962;2022-10-17T07:53:57;9.70;;;3.57;;
5898;SDS011;2975;50.956;6.962;2022-10-17T07:56:23;8.07;;;3.10;;
5898;SDS011;2975;50.956;6.962;2022-10-17T07:58:49;5.83;;;2.80;;
5898;SDS011;2975;50.956;6.962;2022-10-17T08:01:16;6.40;;;3.10;;
5898;SDS011;2975;50.956;6.962;2022-10-17T08:03:43;5.00;;;2.93;;
5898;SDS011;2975;50.956;6.962;2022-10-17T08:06:09;4.23;;;2.60;;
5898;SDS011;2975;50.956;6.962;2022-10-17T08:08:36;7.97;;;3.20;;
5898;SDS011;2975;50.956;6.962;2022-10-17T08:11:05;9.97;;;3.03;;
5898;SDS011;2975;50.956;6.962;2022-10-17T08:13:33;4.67;;;2.57;;
5898;SDS011;2975;50.956;6.962;2022-10-17T08:16:03;4.90;;;2.80;;
5898;SDS011;2975;50.956;6.962;2022-10-17T08:18:31;5.27;;;2.97;;
5898;SDS011;2975;50.956;6.962;2022-10-17T08:20:58;5.47;;;2.93;;
5898;SDS011;2975;50.956;6.962;2022-10-17T08:23:24;5.37;;;2.90;;
5898;SDS011;2975;50.956;6.962;2022-10-17T08:25:50;8.23;;;3.27;;
5898;SDS011;2975;50.956;6.962;2022-10-17T08:28:15;6.13;;;3.00;;
5898;SDS011;2975;50.956;6.962;2022-10-17T08:30:41;9.00;;;2.90;;
5898;SDS011;2975;50.956;6.962;2022-10-17T08:33:07;5.70;;;2.90;;
5898;SDS011;2975;50.956;6.962;2022-10-17T08:35:32;4.23;;;2.53;;
5898;SDS011;2975;50.956;6.962;2022-10-17T08:37:58;6.03;;;2.60;;
5898;SDS011;2975;50.956;6.962;2022-10-17T08:40:27;8.60;;;2.87;;
5898;SDS011;2975;50.956;6.962;2022-10-17T08:43:13;4.77;;;2.63;;
5898;SDS011;2975;50.956;6.962;2022-10-17T08:46:07;5.03;;;2.70;;
5898;SDS011;2975;50.956;6.962;2022-10-17T08:48:35;3.93;;;2.60;;
5898;SDS011;2975;50.956;6.962;2022-10-17T08:53:59;4.03;;;2.90;;
5898;SDS011;2975;50.956;6.962;2022-10-17T08:56:33;5.60;;;2.70;;
5898;SDS011;2975;50.956;6.962;2022-10-17T08:59:05;9.30;;;2.53;;
5898;SDS011;2975;50.956;6.962;2022-10-17T09:04:24;4.13;;;2.70;;
5898;SDS011;2975;50.956;6.962;2022-10-17T09:07:12;6.83;;;2.63;;
5898;SDS011;2975;50.956;6.962;2022-10-17T09:18:12;6.07;;;2.37;;
5898;SDS011;2975;50.956;6.962;2022-10-17T09:20:47;4.97;;;2.93;;
5898;SDS011;2975;50.956;6.962;2022-10-17T09:23:17;9.40;;;2.63;;
5898;SDS011;2975;50.956;6.962;2022-10-17T09:25:52;7.07;;;2.70;;
5898;SDS011;2975;50.956;6.962;2022-10-17T09:28:33;10.47;;;3.60;;
5898;SDS011;2975;50.956;6.962;2022-10-17T09:33:46;4.87;;;2.30;;
5898;SDS011;2975;50.956;6.962;2022-10-17T09:38:52;4.20;;;2.53;;
5898;SDS011;2975;50.956;6.962;2022-10-17T09:41:29;9.27;;;2.57;;
5898;SDS011;2975;50.956;6.962;2022-10-17T09:44:11;9.63;;;2.80;;
5898;SDS011;2975;50.956;6.962;2022-10-17T09:46:38;6.93;;;2.87;;
5898;SDS011;2975;50.956;6.962;2022-10-17T09:49:05;7.80;;;2.70;;
5898;SDS011;2975;50.956;6.962;2022-10-17T09:51:41;5.00;;;2.30;;
5898;SDS011;2975;50.956;6.962;2022-10-17T09:54:13;4.10;;;2.67;;
5898;SDS011;2975;50.956;6.962;2022-10-17T09:59:29;4.93;;;2.80;;
5898;SDS011;2975;50.956;6.962;2022-10-17T10:02:06;7.63;;;2.60;;
5898;SDS011;2975;50.956;6.962;2022-10-17T10:05:00;4.33;;;2.83;;
5898;SDS011;2975;50.956;6.962;2022-10-17T10:07:32;5.57;;;2.40;;
5898;SDS011;2975;50.956;6.962;2022-10-17T10:10:00;5.37;;;2.80;;
5898;SDS011;2975;50.956;6.962;2022-10-17T10:12:28;4.47;;;2.83;;
5898;SDS011;2975;50.956;6.962;2022-10-17T10:14:55;5.57;;;2.43;;
5898;SDS011;2975;50.956;6.962;2022-10-17T10:17:26;4.25;;;3.15;;
5898;SDS011;2975;50.956;6.962;2022-10-17T10:23:12;2.92;;;2.60;;
5898;SDS011;2975;50.956;6.962;2022-10-17T10:25:54;3.63;;;2.60;;
5898;SDS011;2975;50.956;6.962;2022-10-17T10:28:26;7.43;;;2.80;;
5898;SDS011;2975;50.956;6.962;2022-10-17T10:30:53;5.45;;;2.72;;
5898;SDS011;2975;50.956;6.962;2022-10-17T10:33:21;7.47;;;2.50;;
5898;SDS011;2975;50.956;6.962;2022-10-17T10:35:56;5.50;;;2.60;;
5898;SDS011;2975;50.956;6.962;2022-10-17T10:38:26;7.50;;;2.93;;
5898;SDS011;2975;50.956;6.962;2022-10-17T10:40:53;7.18;;;2.35;;
5898;SDS011;2975;50.956;6.962;2022-10-17T10:45:55;3.55;;;2.30;;
5898;SDS011;2975;50.956;6.962;2022-10-17T10:48:39;3.97;;;2.60;;
5898;SDS011;2975;50.956;6.962;2022-10-17T10:51:15;4.57;;;2.50;;
5898;SDS011;2975;50.956;6.962;2022-10-17T10:56:29;8.47;;;2.93;;
5898;SDS011;2975;50.956;6.962;2022-10-17T11:12:27;11.85;;;3.67;;
5898;SDS011;2975;50.956;6.962;2022-10-17T11:15:02;3.13;;;2.60;;
5898;SDS011;2975;50.956;6.962;2022-10-17T11:17:44;4.20;;;2.67;;
5898;SDS011;2975;50.956;6.962;2022-10-17T11:26:07;4.70;;;2.60;;
5898;SDS011;2975;50.956;6.962;2022-10-17T11:28:39;4.07;;;2.80;;
5898;SDS011;2975;50.956;6.962;2022-10-17T11:31:06;5.57;;;2.90;;
5898;SDS011;2975;50.956;6.962;2022-10-17T11:33:48;7.68;;;2.92;;
5898;SDS011;2975;50.956;6.962;2022-10-17T11:36:21;6.75;;;3.05;;
5898;SDS011;2975;50.956;6.962;2022-10-17T11:38:54;3.63;;;2.63;;
5898;SDS011;2975;50.956;6.962;2022-10-17T11:41:33;4.63;;;2.60;;
5898;SDS011;2975;50.956;6.962;2022-10-17T11:44:26;4.17;;;2.87;;
5898;SDS011;2975;50.956;6.962;2022-10-17T11:50:18;15.85;;;5.88;;
5898;SDS011;2975;50.956;6.962;2022-10-17T11:52:53;8.57;;;3.97;;
5898;SDS011;2975;50.956;6.962;2022-10-17T11:55:23;6.10;;;2.80;;
5898;SDS011;2975;50.956;6.962;2022-10-17T12:11:44;5.27;;;2.70;;
5898;SDS011;2975;50.956;6.962;2022-10-17T12:17:03;9.88;;;3.22;;
5898;SDS011;2975;50.956;6.962;2022-10-17T12:19:34;7.50;;;3.20;;
5898;SDS011;2975;50.956;6.962;2022-10-17T12:22:22;9.85;;;3.60;;
5898;SDS011;2975;50.956;6.962;2022-10-17T12:27:42;3.33;;;2.23;;
5898;SDS011;2975;50.956;6.962;2022-10-17T12:30:25;3.40;;;2.92;;
5898;SDS011;2975;50.956;6.962;2022-10-17T12:32:55;5.53;;;2.75;;
5898;SDS011;2975;50.956;6.962;2022-10-17T12:35:22;6.23;;;2.50;;
5898;SDS011;2975;50.956;6.962;2022-10-17T12:43:02;6.15;;;2.70;;
5898;SDS011;2975;50.956;6.962;2022-10-17T12:45:56;5.15;;;3.05;;
5898;SDS011;2975;50.956;6.962;2022-10-17T12:56:13;8.32;;;3.03;;
5898;SDS011;2975;50.956;6.962;2022-10-17T12:58:41;9.35;;;4.18;;
5898;SDS011;2975;50.956;6.962;2022-10-17T13:01:44;4.88;;;2.75;;
5898;SDS011;2975;50.956;6.962;2022-10-17T13:04:03;5.47;;;2.58;;
5898;SDS011;2975;50.956;6.962;2022-10-17T13:06:33;4.13;;;2.75;;
5898;SDS011;2975;50.956;6.962;2022-10-17T13:09:05;6.80;;;2.92;;
5898;SDS011;2975;50.956;6.962;2022-10-17T13:11:48;11.02;;;2.85;;
5898;SDS011;2975;50.956;6.962;2022-10-17T13:14:15;6.70;;;2.80;;
5898;SDS011;2975;50.956;6.962;2022-10-17T13:16:54;8.38;;;2.80;;
5898;SDS011;2975;50.956;6.962;2022-10-17T13:19:28;6.83;;;3.23;;
5898;SDS011;2975;50.956;6.962;2022-10-17T13:21:56;5.57;;;3.20;;
5898;SDS011;2975;50.956;6.962;2022-10-17T13:26:58;8.18;;;3.30;;
5898;SDS011;2975;50.956;6.962;2022-10-17T13:29:24;8.40;;;3.20;;
5898;SDS011;2975;50.956;6.962;2022-10-17T13:31:53;9.52;;;3.70;;
5898;SDS011;2975;50.956;6.962;2022-10-17T13:34:29;8.30;;;3.92;;
5898;SDS011;2975;50.956;6.962;2022-10-17T13:36:57;8.00;;;4.18;;
5898;SDS011;2975;50.956;6.962;2022-10-17T13:39:28;9.45;;;3.58;;
5898;SDS011;2975;50.956;6.962;2022-10-17T13:42:00;11.40;;;4.65;;
5898;SDS011;2975;50.956;6.962;2022-10-17T13:44:26;8.98;;;5.18;;
5898;SDS011;2975;50.956;6.962;2022-10-17T13:46:56;6.15;;;3.97;;
5898;SDS011;2975;50.956;6.962;2022-10-17T13:51:57;8.52;;;3.85;;
5898;SDS011;2975;50.956;6.962;2022-10-17T13:56:56;10.20;;;4.43;;
5898;SDS011;2975;50.956;6.962;2022-10-17T13:59:23;10.33;;;4.87;;
5898;SDS011;2975;50.956;6.962;2022-10-17T14:01:54;9.80;;;5.17;;
5898;SDS011;2975;50.956;6.962;2022-10-17T14:04:20;8.73;;;4.60;;
5898;SDS011;2975;50.956;6.962;2022-10-17T14:06:46;10.90;;;5.20;;
5898;SDS011;2975;50.956;6.962;2022-10-17T14:09:17;10.00;;;5.35;;
5898;SDS011;2975;50.956;6.962;2022-10-17T14:12:11;12.43;;;5.53;;
5898;SDS011;2975;50.956;6.962;2022-10-17T14:14:38;9.93;;;5.07;;
5898;SDS011;2975;50.956;6.962;2022-10-17T14:17:14;10.50;;;5.10;;
5898;SDS011;2975;50.956;6.962;2022-10-17T14:19:55;10.95;;;5.32;;
5898;SDS011;2975;50.956;6.962;2022-10-17T14:22:26;8.45;;;5.10;;
5898;SDS011;2975;50.956;6.962;2022-10-17T14:24:53;9.57;;;5.30;;
5898;SDS011;2975;50.956;6.962;2022-10-17T14:27:35;8.68;;;4.50;;
5898;SDS011;2975;50.956;6.962;2022-10-17T14:30:06;10.85;;;4.75;;
5898;SDS011;2975;50.956;6.962;2022-10-17T14:32:50;9.00;;;5.10;;
5898;SDS011;2975;50.956;6.962;2022-10-17T14:35:25;9.15;;;3.45;;
5898;SDS011;2975;50.956;6.962;2022-10-17T14:37:51;9.02;;;3.10;;
5898;SDS011;2975;50.956;6.962;2022-10-17T14:40:25;6.65;;;2.90;;
5898;SDS011;2975;50.956;6.962;2022-10-17T14:42:52;4.50;;;2.33;;
5898;SDS011;2975;50.956;6.962;2022-10-17T14:45:24;7.93;;;2.78;;
5898;SDS011;2975;50.956;6.962;2022-10-17T14:47:52;5.43;;;2.92;;
5898;SDS011;2975;50.956;6.962;2022-10-17T14:53:00;3.15;;;1.92;;
5898;SDS011;2975;50.956;6.962;2022-10-17T14:55:27;4.27;;;2.23;;
5898;SDS011;2975;50.956;6.962;2022-10-17T14:57:54;4.82;;;2.03;;
5898;SDS011;2975;50.956;6.962;2022-10-17T15:00:21;4.53;;;2.10;;
5898;SDS011;2975;50.956;6.962;2022-10-17T15:02:47;8.50;;;2.72;;
5898;SDS011;2975;50.956;6.962;2022-10-17T15:05:14;2.78;;;2.15;;
5898;SDS011;2975;50.956;6.962;2022-10-17T15:07:40;4.93;;;2.50;;
5898;SDS011;2975;50.956;6.962;2022-10-17T15:13:01;7.60;;;2.55;;
5898;SDS011;2975;50.956;6.962;2022-10-17T15:15:28;6.22;;;2.60;;
5898;SDS011;2975;50.956;6.962;2022-10-17T15:17:54;4.35;;;2.25;;
5898;SDS011;2975;50.956;6.962;2022-10-17T15:20:20;5.47;;;2.70;;
5898;SDS011;2975;50.956;6.962;2022-10-17T15:22:52;3.00;;;2.47;;
5898;SDS011;2975;50.956;6.962;2022-10-17T15:25:18;11.50;;;2.65;;
5898;SDS011;2975;50.956;6.962;2022-10-17T15:27:44;4.33;;;2.40;;
5898;SDS011;2975;50.956;6.962;2022-10-17T15:30:15;6.07;;;2.75;;
5898;SDS011;2975;50.956;6.962;2022-10-17T15:32:46;4.77;;;2.10;;
5898;SDS011;2975;50.956;6.962;2022-10-17T15:35:12;9.82;;;2.50;;
5898;SDS011;2975;50.956;6.962;2022-10-17T15:37:38;6.90;;;2.40;;
5898;SDS011;2975;50.956;6.962;2022-10-17T15:40:04;9.10;;;2.90;;
5898;SDS011;2975;50.956;6.962;2022-10-17T15:42:30;5.17;;;2.53;;
5898;SDS011;2975;50.956;6.962;2022-10-17T15:44:56;7.67;;;2.37;;
5898;SDS011;2975;50.956;6.962;2022-10-17T15:47:26;4.90;;;2.57;;
5898;SDS011;2975;50.956;6.962;2022-10-17T15:49:54;4.83;;;2.87;;
5898;SDS011;2975;50.956;6.962;2022-10-17T15:52:21;6.77;;;2.50;;
5898;SDS011;2975;50.956;6.962;2022-10-17T15:54:47;5.67;;;2.47;;
5898;SDS011;2975;50.956;6.962;2022-10-17T15:57:20;8.10;;;2.67;;
5898;SDS011;2975;50.956;6.962;2022-10-17T15:59:48;10.83;;;2.77;;
5898;SDS011;2975;50.956;6.962;2022-10-17T16:02:15;7.03;;;3.07;;
5898;SDS011;2975;50.956;6.962;2022-10-17T16:04:42;8.87;;;2.90;;
5898;SDS011;2975;50.956;6.962;2022-10-17T16:07:08;5.83;;;2.80;;
5898;SDS011;2975;50.956;6.962;2022-10-17T16:09:34;6.67;;;2.43;;
5898;SDS011;2975;50.956;6.962;2022-10-17T16:12:04;8.83;;;2.30;;
5898;SDS011;2975;50.956;6.962;2022-10-17T16:14:35;8.50;;;2.60;;
5898;SDS011;2975;50.956;6.962;2022-10-17T16:17:01;7.03;;;2.47;;
5898;SDS011;2975;50.956;6.962;2022-10-17T16:19:26;4.93;;;2.47;;
5898;SDS011;2975;50.956;6.962;2022-10-17T16:21:54;6.20;;;2.17;;
5898;SDS011;2975;50.956;6.962;2022-10-17T16:24:21;5.30;;;3.07;;
5898;SDS011;2975;50.956;6.962;2022-10-17T16:26:47;4.97;;;2.90;;
5898;SDS011;2975;50.956;6.962;2022-10-17T16:29:13;5.97;;;2.93;;
5898;SDS011;2975;50.956;6.962;2022-10-17T16:31:39;10.20;;;3.17;;
5898;SDS011;2975;50.956;6.962;2022-10-17T16:34:08;5.93;;;3.17;;
5898;SDS011;2975;50.956;6.962;2022-10-17T16:36:37;7.43;;;3.23;;
5898;SDS011;2975;50.956;6.962;2022-10-17T16:39:03;10.10;;;3.70;;
5898;SDS011;2975;50.956;6.962;2022-10-17T16:41:29;6.50;;;3.70;;
5898;SDS011;2975;50.956;6.962;2022-10-17T16:44:01;8.23;;;3.80;;
5898;SDS011;2975;50.956;6.962;2022-10-17T16:46:29;10.73;;;4.10;;
5898;SDS011;2975;50.956;6.962;2022-10-17T16:48:56;7.93;;;4.00;;
5898;SDS011;2975;50.956;6.962;2022-10-17T16:51:22;10.13;;;4.17;;
5898;SDS011;2975;50.956;6.962;2022-10-17T16:53:49;6.57;;;3.63;;
5898;SDS011;2975;50.956;6.962;2022-10-17T16:56:19;10.77;;;4.30;;
5898;SDS011;2975;50.956;6.962;2022-10-17T16:58:46;8.27;;;4.03;;
5898;SDS011;2975;50.956;6.962;2022-10-17T17:01:22;8.80;;;4.43;;
5898;SDS011;2975;50.956;6.962;2022-10-17T17:03:48;8.63;;;4.57;;
5898;SDS011;2975;50.956;6.962;2022-10-17T17:06:16;10.40;;;5.10;;
5898;SDS011;2975;50.956;6.962;2022-10-17T17:08:44;8.37;;;4.53;;
5898;SDS011;2975;50.956;6.962;2022-10-17T17:11:11;8.50;;;4.50;;
5898;SDS011;2975;50.956;6.962;2022-10-17T17:13:38;9.80;;;5.13;;
5898;SDS011;2975;50.956;6.962;2022-10-17T17:16:08;7.17;;;3.80;;
5898;SDS011;2975;50.956;6.962;2022-10-17T17:18:36;11.63;;;4.40;;
5898;SDS011;2975;50.956;6.962;2022-10-17T17:21:03;7.07;;;4.23;;
5898;SDS011;2975;50.956;6.962;2022-10-17T17:23:31;7.87;;;4.57;;
5898;SDS011;2975;50.956;6.962;2022-10-17T17:26:00;10.47;;;4.60;;
5898;SDS011;2975;50.956;6.962;2022-10-17T17:28:28;8.23;;;4.90;;
5898;SDS011;2975;50.956;6.962;2022-10-17T17:30:55;7.23;;;4.30;;
5898;SDS011;2975;50.956;6.962;2022-10-17T17:33:21;7.67;;;4.30;;
5898;SDS011;2975;50.956;6.962;2022-10-17T17:35:52;5.83;;;4.10;;
5898;SDS011;2975;50.956;6.962;2022-10-17T17:38:19;9.33;;;4.37;;
5898;SDS011;2975;50.956;6.962;2022-10-17T17:40:45;7.80;;;3.60;;
5898;SDS011;2975;50.956;6.962;2022-10-17T17:43:11;5.83;;;3.73;;